sensor_id;sensor_type;location;lat;lon;timestamp;P1;durP1;ratioP1;P2;durP2;ratioP2
40284;SDS011;25997;50.214;19.354;2023-07-30T00:02:55;4.55;;;2.60;;
40284;SDS011;25997;50.214;19.354;2023-07-30T00:05:59;3.90;;;2.45;;
40284;SDS011;25997;50.214;19.354;2023-07-30T00:09:02;3.65;;;2.35;;
40284;SDS011;25997;50.214;19.354;2023-07-30T00:12:05;4.95;;;2.88;;
40284;SDS011;25997;50.214;19.354;2023-07-30T00:15:08;5.30;;;2.45;;
40284;SDS011;25997;50.214;19.354;2023-07-30T00:18:11;4.88;;;2.30;;
40284;SDS011;25997;50.214;19.354;2023-07-30T00:21:15;3.88;;;2.58;;
40284;SDS011;25997;50.214;19.354;2023-07-30T00:24:17;3.88;;;2.40;;
40284;SDS011;25997;50.214;19.354;2023-07-30T00:27:19;6.55;;;2.55;;
40284;SDS011;25997;50.214;19.354;2023-07-30T00:30:22;6.45;;;2.80;;
40284;SDS011;25997;50.214;19.354;2023-07-30T00:33:24;7.38;;;2.53;;
40284;SDS011;25997;50.214;19.354;2023-07-30T00:36:28;3.70;;;2.08;;
40284;SDS011;25997;50.214;19.354;2023-07-30T00:39:30;3.08;;;2.30;;
40284;SDS011;25997;50.214;19.354;2023-07-30T00:42:33;5.28;;;2.15;;
40284;SDS011;25997;50.214;19.354;2023-07-30T00:45:35;5.40;;;2.22;;
40284;SDS011;25997;50.214;19.354;2023-07-30T00:48:40;6.32;;;2.20;;
40284;SDS011;25997;50.214;19.354;2023-07-30T00:51:44;4.78;;;2.20;;
40284;SDS011;25997;50.214;19.354;2023-07-30T00:54:48;4.15;;;2.38;;
40284;SDS011;25997;50.214;19.354;2023-07-30T00:57:51;4.95;;;2.38;;
40284;SDS011;25997;50.214;19.354;2023-07-30T01:00:53;4.25;;;1.90;;
40284;SDS011;25997;50.214;19.354;2023-07-30T01:03:56;2.70;;;2.10;;
40284;SDS011;25997;50.214;19.354;2023-07-30T01:07:00;2.47;;;2.00;;
40284;SDS011;25997;50.214;19.354;2023-07-30T01:10:03;3.55;;;2.28;;
40284;SDS011;25997;50.214;19.354;2023-07-30T01:13:06;3.72;;;2.00;;
40284;SDS011;25997;50.214;19.354;2023-07-30T01:16:11;4.18;;;2.20;;
40284;SDS011;25997;50.214;19.354;2023-07-30T01:19:13;3.67;;;2.35;;
40284;SDS011;25997;50.214;19.354;2023-07-30T01:22:17;3.88;;;1.85;;
40284;SDS011;25997;50.214;19.354;2023-07-30T01:25:20;4.57;;;2.05;;
40284;SDS011;25997;50.214;19.354;2023-07-30T01:28:28;3.40;;;2.00;;
40284;SDS011;25997;50.214;19.354;2023-07-30T01:31:37;4.53;;;2.20;;
40284;SDS011;25997;50.214;19.354;2023-07-30T01:34:42;3.17;;;1.95;;
40284;SDS011;25997;50.214;19.354;2023-07-30T01:37:49;3.05;;;1.98;;
40284;SDS011;25997;50.214;19.354;2023-07-30T01:40:53;3.22;;;2.10;;
40284;SDS011;25997;50.214;19.354;2023-07-30T01:43:56;3.65;;;2.30;;
40284;SDS011;25997;50.214;19.354;2023-07-30T01:46:58;3.67;;;2.30;;
40284;SDS011;25997;50.214;19.354;2023-07-30T01:50:00;3.78;;;1.92;;
40284;SDS011;25997;50.214;19.354;2023-07-30T01:53:05;3.88;;;2.00;;
40284;SDS011;25997;50.214;19.354;2023-07-30T01:56:07;3.45;;;2.25;;
40284;SDS011;25997;50.214;19.354;2023-07-30T01:59:10;3.60;;;2.05;;
40284;SDS011;25997;50.214;19.354;2023-07-30T02:02:12;3.50;;;2.40;;
40284;SDS011;25997;50.214;19.354;2023-07-30T02:05:14;2.97;;;1.73;;
40284;SDS011;25997;50.214;19.354;2023-07-30T02:08:20;3.42;;;2.28;;
40284;SDS011;25997;50.214;19.354;2023-07-30T02:11:22;3.30;;;2.60;;
40284;SDS011;25997;50.214;19.354;2023-07-30T02:14:25;3.28;;;2.20;;
40284;SDS011;25997;50.214;19.354;2023-07-30T02:17:28;3.60;;;2.00;;
40284;SDS011;25997;50.214;19.354;2023-07-30T02:20:30;5.20;;;2.42;;
40284;SDS011;25997;50.214;19.354;2023-07-30T02:23:34;4.28;;;2.17;;
40284;SDS011;25997;50.214;19.354;2023-07-30T02:26:36;8.13;;;5.80;;
40284;SDS011;25997;50.214;19.354;2023-07-30T02:29:39;4.82;;;4.18;;
40284;SDS011;25997;50.214;19.354;2023-07-30T02:32:41;6.28;;;2.80;;
40284;SDS011;25997;50.214;19.354;2023-07-30T02:35:43;3.30;;;1.70;;
40284;SDS011;25997;50.214;19.354;2023-07-30T02:38:47;12.07;;;8.25;;
40284;SDS011;25997;50.214;19.354;2023-07-30T02:41:50;5.30;;;2.95;;
40284;SDS011;25997;50.214;19.354;2023-07-30T02:44:52;6.28;;;3.97;;
40284;SDS011;25997;50.214;19.354;2023-07-30T02:47:54;6.03;;;3.55;;
40284;SDS011;25997;50.214;19.354;2023-07-30T02:50:57;2.97;;;1.90;;
40284;SDS011;25997;50.214;19.354;2023-07-30T02:54:03;3.97;;;2.70;;
40284;SDS011;25997;50.214;19.354;2023-07-30T02:57:07;5.00;;;3.30;;
40284;SDS011;25997;50.214;19.354;2023-07-30T03:00:11;4.38;;;3.50;;
40284;SDS011;25997;50.214;19.354;2023-07-30T03:03:14;3.38;;;2.10;;
40284;SDS011;25997;50.214;19.354;2023-07-30T03:06:16;3.60;;;2.40;;
40284;SDS011;25997;50.214;19.354;2023-07-30T03:09:20;4.20;;;2.03;;
40284;SDS011;25997;50.214;19.354;2023-07-30T03:12:23;2.92;;;2.10;;
40284;SDS011;25997;50.214;19.354;2023-07-30T03:15:26;3.10;;;1.70;;
40284;SDS011;25997;50.214;19.354;2023-07-30T03:18:29;4.28;;;1.95;;
40284;SDS011;25997;50.214;19.354;2023-07-30T03:21:31;2.95;;;1.73;;
40284;SDS011;25997;50.214;19.354;2023-07-30T03:24:35;4.10;;;1.80;;
40284;SDS011;25997;50.214;19.354;2023-07-30T03:27:37;5.03;;;2.03;;
40284;SDS011;25997;50.214;19.354;2023-07-30T03:30:40;2.83;;;2.00;;
40284;SDS011;25997;50.214;19.354;2023-07-30T03:33:43;3.17;;;1.70;;
40284;SDS011;25997;50.214;19.354;2023-07-30T03:36:46;4.80;;;2.25;;
40284;SDS011;25997;50.214;19.354;2023-07-30T03:39:50;4.10;;;1.98;;
40284;SDS011;25997;50.214;19.354;2023-07-30T03:42:53;3.25;;;2.03;;
40284;SDS011;25997;50.214;19.354;2023-07-30T03:45:55;3.15;;;2.20;;
40284;SDS011;25997;50.214;19.354;2023-07-30T03:48:58;3.25;;;2.00;;
40284;SDS011;25997;50.214;19.354;2023-07-30T03:52:01;3.45;;;2.08;;
40284;SDS011;25997;50.214;19.354;2023-07-30T03:55:06;3.65;;;2.22;;
40284;SDS011;25997;50.214;19.354;2023-07-30T03:58:09;4.35;;;2.05;;
40284;SDS011;25997;50.214;19.354;2023-07-30T04:01:11;3.33;;;2.35;;
40284;SDS011;25997;50.214;19.354;2023-07-30T04:04:13;2.90;;;1.75;;
40284;SDS011;25997;50.214;19.354;2023-07-30T04:07:16;3.05;;;1.77;;
40284;SDS011;25997;50.214;19.354;2023-07-30T04:10:20;3.58;;;1.90;;
40284;SDS011;25997;50.214;19.354;2023-07-30T04:13:22;8.98;;;2.08;;
40284;SDS011;25997;50.214;19.354;2023-07-30T04:16:24;3.15;;;2.08;;
40284;SDS011;25997;50.214;19.354;2023-07-30T04:19:27;4.57;;;2.03;;
40284;SDS011;25997;50.214;19.354;2023-07-30T04:22:29;4.22;;;2.47;;
40284;SDS011;25997;50.214;19.354;2023-07-30T04:25:33;3.42;;;2.13;;
40284;SDS011;25997;50.214;19.354;2023-07-30T04:28:36;3.60;;;2.47;;
40284;SDS011;25997;50.214;19.354;2023-07-30T04:31:39;3.38;;;1.73;;
40284;SDS011;25997;50.214;19.354;2023-07-30T04:34:41;2.47;;;1.50;;
40284;SDS011;25997;50.214;19.354;2023-07-30T04:37:44;3.00;;;1.95;;
40284;SDS011;25997;50.214;19.354;2023-07-30T04:40:48;3.25;;;1.77;;
40284;SDS011;25997;50.214;19.354;2023-07-30T04:47:14;3.80;;;1.88;;
40284;SDS011;25997;50.214;19.354;2023-07-30T04:50:17;2.65;;;1.60;;
40284;SDS011;25997;50.214;19.354;2023-07-30T04:53:19;4.88;;;2.08;;
40284;SDS011;25997;50.214;19.354;2023-07-30T04:56:24;3.22;;;1.60;;
40284;SDS011;25997;50.214;19.354;2023-07-30T04:59:27;2.75;;;1.70;;
40284;SDS011;25997;50.214;19.354;2023-07-30T05:02:30;2.75;;;1.45;;
40284;SDS011;25997;50.214;19.354;2023-07-30T05:05:32;2.30;;;1.60;;
40284;SDS011;25997;50.214;19.354;2023-07-30T05:08:34;4.50;;;2.33;;
40284;SDS011;25997;50.214;19.354;2023-07-30T05:11:38;3.03;;;1.70;;
40284;SDS011;25997;50.214;19.354;2023-07-30T05:14:41;3.38;;;1.90;;
40284;SDS011;25997;50.214;19.354;2023-07-30T05:17:43;3.72;;;2.28;;
40284;SDS011;25997;50.214;19.354;2023-07-30T05:20:46;4.57;;;1.90;;
40284;SDS011;25997;50.214;19.354;2023-07-30T05:23:48;3.88;;;2.28;;
40284;SDS011;25997;50.214;19.354;2023-07-30T05:26:52;3.47;;;1.92;;
40284;SDS011;25997;50.214;19.354;2023-07-30T05:29:54;3.47;;;1.92;;
40284;SDS011;25997;50.214;19.354;2023-07-30T05:32:57;3.33;;;2.08;;
40284;SDS011;25997;50.214;19.354;2023-07-30T05:35:59;3.70;;;1.60;;
40284;SDS011;25997;50.214;19.354;2023-07-30T05:39:01;3.47;;;1.73;;
40284;SDS011;25997;50.214;19.354;2023-07-30T05:42:05;3.75;;;1.58;;
40284;SDS011;25997;50.214;19.354;2023-07-30T05:45:08;3.28;;;1.83;;
40284;SDS011;25997;50.214;19.354;2023-07-30T05:48:11;3.50;;;2.00;;
40284;SDS011;25997;50.214;19.354;2023-07-30T05:51:13;4.78;;;1.92;;
40284;SDS011;25997;50.214;19.354;2023-07-30T05:54:16;3.55;;;1.92;;
40284;SDS011;25997;50.214;19.354;2023-07-30T05:57:20;2.85;;;2.05;;
40284;SDS011;25997;50.214;19.354;2023-07-30T06:00:22;3.92;;;2.88;;
40284;SDS011;25997;50.214;19.354;2023-07-30T06:03:25;8.32;;;4.72;;
40284;SDS011;25997;50.214;19.354;2023-07-30T06:06:28;10.88;;;6.28;;
40284;SDS011;25997;50.214;19.354;2023-07-30T06:09:30;6.70;;;4.20;;
40284;SDS011;25997;50.214;19.354;2023-07-30T06:12:34;18.88;;;10.45;;
40284;SDS011;25997;50.214;19.354;2023-07-30T06:15:36;22.25;;;12.18;;
40284;SDS011;25997;50.214;19.354;2023-07-30T06:18:39;9.98;;;5.35;;
40284;SDS011;25997;50.214;19.354;2023-07-30T06:21:41;26.48;;;14.98;;
40284;SDS011;25997;50.214;19.354;2023-07-30T06:24:43;44.47;;;23.85;;
40284;SDS011;25997;50.214;19.354;2023-07-30T06:27:47;14.63;;;8.75;;
40284;SDS011;25997;50.214;19.354;2023-07-30T06:30:50;4.60;;;3.35;;
40284;SDS011;25997;50.214;19.354;2023-07-30T06:33:52;6.15;;;3.70;;
40284;SDS011;25997;50.214;19.354;2023-07-30T06:36:55;5.03;;;2.67;;
40284;SDS011;25997;50.214;19.354;2023-07-30T06:39:57;8.23;;;5.28;;
40284;SDS011;25997;50.214;19.354;2023-07-30T06:43:01;7.68;;;4.72;;
40284;SDS011;25997;50.214;19.354;2023-07-30T06:46:03;6.85;;;3.65;;
40284;SDS011;25997;50.214;19.354;2023-07-30T06:49:06;6.65;;;3.83;;
40284;SDS011;25997;50.214;19.354;2023-07-30T06:52:08;5.15;;;2.67;;
40284;SDS011;25997;50.214;19.354;2023-07-30T06:55:10;3.63;;;2.28;;
40284;SDS011;25997;50.214;19.354;2023-07-30T06:58:14;3.30;;;2.15;;
40284;SDS011;25997;50.214;19.354;2023-07-30T07:01:17;11.43;;;6.70;;
40284;SDS011;25997;50.214;19.354;2023-07-30T07:04:19;6.38;;;2.85;;
40284;SDS011;25997;50.214;19.354;2023-07-30T07:07:21;4.20;;;3.10;;
40284;SDS011;25997;50.214;19.354;2023-07-30T07:10:24;5.22;;;2.45;;
40284;SDS011;25997;50.214;19.354;2023-07-30T07:13:27;4.68;;;3.33;;
40284;SDS011;25997;50.214;19.354;2023-07-30T07:16:30;3.75;;;3.00;;
40284;SDS011;25997;50.214;19.354;2023-07-30T07:19:32;3.50;;;2.33;;
40284;SDS011;25997;50.214;19.354;2023-07-30T07:22:37;3.63;;;2.45;;
40284;SDS011;25997;50.214;19.354;2023-07-30T07:25:39;2.72;;;1.85;;
40284;SDS011;25997;50.214;19.354;2023-07-30T07:28:43;3.63;;;2.08;;
40284;SDS011;25997;50.214;19.354;2023-07-30T07:31:45;3.78;;;1.70;;
40284;SDS011;25997;50.214;19.354;2023-07-30T07:34:48;3.85;;;2.17;;
40284;SDS011;25997;50.214;19.354;2023-07-30T07:37:51;4.22;;;2.65;;
40284;SDS011;25997;50.214;19.354;2023-07-30T07:40:54;7.00;;;3.08;;
40284;SDS011;25997;50.214;19.354;2023-07-30T07:43:57;3.08;;;2.10;;
40284;SDS011;25997;50.214;19.354;2023-07-30T07:47:00;2.80;;;1.83;;
40284;SDS011;25997;50.214;19.354;2023-07-30T07:50:02;3.10;;;2.25;;
40284;SDS011;25997;50.214;19.354;2023-07-30T07:53:05;3.90;;;2.22;;
40284;SDS011;25997;50.214;19.354;2023-07-30T07:56:08;2.50;;;1.90;;
40284;SDS011;25997;50.214;19.354;2023-07-30T07:59:12;6.32;;;2.22;;
40284;SDS011;25997;50.214;19.354;2023-07-30T08:02:14;4.18;;;2.15;;
40284;SDS011;25997;50.214;19.354;2023-07-30T08:05:16;3.47;;;2.85;;
40284;SDS011;25997;50.214;19.354;2023-07-30T08:08:20;3.80;;;2.17;;
40284;SDS011;25997;50.214;19.354;2023-07-30T08:11:22;2.40;;;1.95;;
40284;SDS011;25997;50.214;19.354;2023-07-30T08:14:26;2.88;;;2.28;;
40284;SDS011;25997;50.214;19.354;2023-07-30T08:17:28;3.63;;;2.63;;
40284;SDS011;25997;50.214;19.354;2023-07-30T08:20:31;2.70;;;1.75;;
40284;SDS011;25997;50.214;19.354;2023-07-30T08:23:33;3.58;;;2.60;;
40284;SDS011;25997;50.214;19.354;2023-07-30T08:26:36;3.10;;;2.28;;
40284;SDS011;25997;50.214;19.354;2023-07-30T08:29:40;3.35;;;2.60;;
40284;SDS011;25997;50.214;19.354;2023-07-30T08:32:42;3.30;;;2.30;;
40284;SDS011;25997;50.214;19.354;2023-07-30T08:35:45;3.28;;;2.45;;
40284;SDS011;25997;50.214;19.354;2023-07-30T08:38:47;3.15;;;2.42;;
40284;SDS011;25997;50.214;19.354;2023-07-30T08:41:49;4.88;;;2.50;;
40284;SDS011;25997;50.214;19.354;2023-07-30T08:44:53;5.78;;;2.63;;
40284;SDS011;25997;50.214;19.354;2023-07-30T08:47:56;3.20;;;2.50;;
40284;SDS011;25997;50.214;19.354;2023-07-30T08:50:58;4.70;;;4.03;;
40284;SDS011;25997;50.214;19.354;2023-07-30T08:54:02;2.75;;;2.30;;
40284;SDS011;25997;50.214;19.354;2023-07-30T08:57:05;2.97;;;2.22;;
40284;SDS011;25997;50.214;19.354;2023-07-30T09:00:11;3.38;;;2.30;;
40284;SDS011;25997;50.214;19.354;2023-07-30T09:03:17;3.05;;;2.20;;
40284;SDS011;25997;50.214;19.354;2023-07-30T09:06:20;4.78;;;3.03;;
40284;SDS011;25997;50.214;19.354;2023-07-30T09:09:22;3.15;;;2.47;;
40284;SDS011;25997;50.214;19.354;2023-07-30T09:12:28;2.88;;;2.25;;
40284;SDS011;25997;50.214;19.354;2023-07-30T09:15:34;2.60;;;1.95;;
40284;SDS011;25997;50.214;19.354;2023-07-30T09:18:41;3.28;;;2.08;;
40284;SDS011;25997;50.214;19.354;2023-07-30T09:21:44;2.95;;;2.00;;
40284;SDS011;25997;50.214;19.354;2023-07-30T09:24:46;2.50;;;1.98;;
40284;SDS011;25997;50.214;19.354;2023-07-30T09:27:49;2.85;;;2.28;;
40284;SDS011;25997;50.214;19.354;2023-07-30T09:30:54;2.95;;;2.25;;
40284;SDS011;25997;50.214;19.354;2023-07-30T09:34:02;4.50;;;2.42;;
40284;SDS011;25997;50.214;19.354;2023-07-30T09:37:04;2.55;;;2.10;;
40284;SDS011;25997;50.214;19.354;2023-07-30T09:40:08;2.10;;;1.80;;
40284;SDS011;25997;50.214;19.354;2023-07-30T09:43:12;2.42;;;1.83;;
40284;SDS011;25997;50.214;19.354;2023-07-30T09:46:16;2.38;;;2.08;;
40284;SDS011;25997;50.214;19.354;2023-07-30T09:49:19;3.08;;;2.50;;
40284;SDS011;25997;50.214;19.354;2023-07-30T09:52:21;4.47;;;1.98;;
40284;SDS011;25997;50.214;19.354;2023-07-30T09:55:24;3.13;;;2.17;;
40284;SDS011;25997;50.214;19.354;2023-07-30T09:58:26;4.22;;;2.40;;
40284;SDS011;25997;50.214;19.354;2023-07-30T10:01:30;3.22;;;2.47;;
40284;SDS011;25997;50.214;19.354;2023-07-30T10:04:33;2.55;;;2.20;;
40284;SDS011;25997;50.214;19.354;2023-07-30T10:07:38;2.80;;;2.50;;
40284;SDS011;25997;50.214;19.354;2023-07-30T10:10:43;4.35;;;2.97;;
40284;SDS011;25997;50.214;19.354;2023-07-30T10:13:46;5.28;;;2.55;;
40284;SDS011;25997;50.214;19.354;2023-07-30T10:16:52;2.90;;;2.17;;
40284;SDS011;25997;50.214;19.354;2023-07-30T10:19:55;4.93;;;3.35;;
40284;SDS011;25997;50.214;19.354;2023-07-30T10:22:58;2.50;;;2.20;;
40284;SDS011;25997;50.214;19.354;2023-07-30T10:26:08;3.15;;;2.83;;
40284;SDS011;25997;50.214;19.354;2023-07-30T10:29:12;3.47;;;2.70;;
40284;SDS011;25997;50.214;19.354;2023-07-30T10:32:17;2.90;;;2.30;;
40284;SDS011;25997;50.214;19.354;2023-07-30T10:35:34;2.60;;;2.17;;
40284;SDS011;25997;50.214;19.354;2023-07-30T10:38:37;2.90;;;2.10;;
40284;SDS011;25997;50.214;19.354;2023-07-30T10:41:42;2.47;;;2.08;;
40284;SDS011;25997;50.214;19.354;2023-07-30T10:44:46;3.47;;;2.50;;
40284;SDS011;25997;50.214;19.354;2023-07-30T10:47:50;3.60;;;2.53;;
40284;SDS011;25997;50.214;19.354;2023-07-30T10:50:52;2.40;;;2.05;;
40284;SDS011;25997;50.214;19.354;2023-07-30T10:53:55;2.70;;;2.00;;
40284;SDS011;25997;50.214;19.354;2023-07-30T10:56:57;2.78;;;2.28;;
40284;SDS011;25997;50.214;19.354;2023-07-30T11:00:01;2.85;;;2.30;;
40284;SDS011;25997;50.214;19.354;2023-07-30T11:03:06;2.85;;;2.00;;
40284;SDS011;25997;50.214;19.354;2023-07-30T11:06:09;2.90;;;2.30;;
40284;SDS011;25997;50.214;19.354;2023-07-30T11:09:17;3.30;;;2.00;;
40284;SDS011;25997;50.214;19.354;2023-07-30T11:12:21;2.60;;;2.20;;
40284;SDS011;25997;50.214;19.354;2023-07-30T11:15:24;2.75;;;2.25;;
40284;SDS011;25997;50.214;19.354;2023-07-30T11:18:28;3.10;;;2.30;;
40284;SDS011;25997;50.214;19.354;2023-07-30T11:21:34;6.00;;;3.55;;
40284;SDS011;25997;50.214;19.354;2023-07-30T11:24:37;4.85;;;2.90;;
40284;SDS011;25997;50.214;19.354;2023-07-30T11:27:45;5.50;;;4.10;;
40284;SDS011;25997;50.214;19.354;2023-07-30T11:30:48;3.22;;;2.47;;
40284;SDS011;25997;50.214;19.354;2023-07-30T11:33:54;3.20;;;2.53;;
40284;SDS011;25997;50.214;19.354;2023-07-30T11:36:57;3.22;;;2.28;;
40284;SDS011;25997;50.214;19.354;2023-07-30T11:40:00;2.95;;;2.40;;
40284;SDS011;25997;50.214;19.354;2023-07-30T11:43:03;6.10;;;4.43;;
40284;SDS011;25997;50.214;19.354;2023-07-30T11:46:13;2.90;;;2.20;;
40284;SDS011;25997;50.214;19.354;2023-07-30T11:49:17;2.38;;;1.95;;
40284;SDS011;25997;50.214;19.354;2023-07-30T11:52:22;3.05;;;2.30;;
40284;SDS011;25997;50.214;19.354;2023-07-30T11:55:24;2.65;;;2.22;;
40284;SDS011;25997;50.214;19.354;2023-07-30T11:58:39;2.63;;;2.20;;
40284;SDS011;25997;50.214;19.354;2023-07-30T12:01:43;2.70;;;2.20;;
40284;SDS011;25997;50.214;19.354;2023-07-30T12:04:47;3.58;;;2.50;;
40284;SDS011;25997;50.214;19.354;2023-07-30T12:07:49;2.38;;;2.10;;
40284;SDS011;25997;50.214;19.354;2023-07-30T12:10:52;2.67;;;2.30;;
40284;SDS011;25997;50.214;19.354;2023-07-30T12:13:56;3.28;;;2.05;;
40284;SDS011;25997;50.214;19.354;2023-07-30T12:16:58;5.68;;;2.50;;
40284;SDS011;25997;50.214;19.354;2023-07-30T12:20:03;3.22;;;2.55;;
40284;SDS011;25997;50.214;19.354;2023-07-30T12:23:07;4.03;;;2.50;;
40284;SDS011;25997;50.214;19.354;2023-07-30T12:26:09;2.97;;;2.60;;
40284;SDS011;25997;50.214;19.354;2023-07-30T12:29:12;4.10;;;2.75;;
40284;SDS011;25997;50.214;19.354;2023-07-30T12:32:14;3.58;;;2.85;;
40284;SDS011;25997;50.214;19.354;2023-07-30T12:35:18;3.80;;;2.30;;
40284;SDS011;25997;50.214;19.354;2023-07-30T12:38:21;4.65;;;2.50;;
40284;SDS011;25997;50.214;19.354;2023-07-30T12:41:23;3.05;;;2.30;;
40284;SDS011;25997;50.214;19.354;2023-07-30T12:44:27;3.20;;;2.50;;
40284;SDS011;25997;50.214;19.354;2023-07-30T12:47:29;6.40;;;4.82;;
40284;SDS011;25997;50.214;19.354;2023-07-30T12:50:33;2.78;;;2.28;;
40284;SDS011;25997;50.214;19.354;2023-07-30T12:53:36;4.55;;;3.00;;
40284;SDS011;25997;50.214;19.354;2023-07-30T12:56:38;3.53;;;2.40;;
40284;SDS011;25997;50.214;19.354;2023-07-30T12:59:40;3.85;;;2.60;;
40284;SDS011;25997;50.214;19.354;2023-07-30T13:02:43;3.00;;;2.20;;
40284;SDS011;25997;50.214;19.354;2023-07-30T13:05:47;3.63;;;2.33;;
40284;SDS011;25997;50.214;19.354;2023-07-30T13:08:49;3.90;;;2.85;;
40284;SDS011;25997;50.214;19.354;2023-07-30T13:11:52;3.40;;;2.20;;
40284;SDS011;25997;50.214;19.354;2023-07-30T13:14:54;4.40;;;2.40;;
40284;SDS011;25997;50.214;19.354;2023-07-30T13:17:56;2.70;;;2.42;;
40284;SDS011;25997;50.214;19.354;2023-07-30T13:21:00;3.83;;;2.53;;
40284;SDS011;25997;50.214;19.354;2023-07-30T13:24:04;3.70;;;2.47;;
40284;SDS011;25997;50.214;19.354;2023-07-30T13:27:06;3.92;;;2.80;;
40284;SDS011;25997;50.214;19.354;2023-07-30T13:30:09;2.92;;;2.20;;
40284;SDS011;25997;50.214;19.354;2023-07-30T13:33:12;3.33;;;2.45;;
40284;SDS011;25997;50.214;19.354;2023-07-30T13:36:16;3.45;;;2.42;;
40284;SDS011;25997;50.214;19.354;2023-07-30T13:39:18;6.80;;;2.70;;
40284;SDS011;25997;50.214;19.354;2023-07-30T13:42:21;3.85;;;2.42;;
40284;SDS011;25997;50.214;19.354;2023-07-30T13:45:23;2.85;;;2.40;;
40284;SDS011;25997;50.214;19.354;2023-07-30T13:48:25;4.18;;;2.17;;
40284;SDS011;25997;50.214;19.354;2023-07-30T13:51:29;2.70;;;2.30;;
40284;SDS011;25997;50.214;19.354;2023-07-30T13:54:33;3.13;;;2.55;;
40284;SDS011;25997;50.214;19.354;2023-07-30T13:57:35;3.00;;;2.45;;
40284;SDS011;25997;50.214;19.354;2023-07-30T14:00:40;5.10;;;2.63;;
40284;SDS011;25997;50.214;19.354;2023-07-30T14:03:43;3.83;;;2.47;;
40284;SDS011;25997;50.214;19.354;2023-07-30T14:06:47;4.05;;;2.63;;
40284;SDS011;25997;50.214;19.354;2023-07-30T14:09:49;2.70;;;2.13;;
40284;SDS011;25997;50.214;19.354;2023-07-30T14:12:52;3.75;;;2.70;;
40284;SDS011;25997;50.214;19.354;2023-07-30T14:15:55;3.22;;;2.92;;
40284;SDS011;25997;50.214;19.354;2023-07-30T14:18:57;3.72;;;3.13;;
40284;SDS011;25997;50.214;19.354;2023-07-30T14:22:01;3.75;;;2.70;;
40284;SDS011;25997;50.214;19.354;2023-07-30T14:25:04;2.92;;;2.60;;
40284;SDS011;25997;50.214;19.354;2023-07-30T14:28:07;4.82;;;2.30;;
40284;SDS011;25997;50.214;19.354;2023-07-30T14:31:10;3.10;;;2.80;;
40284;SDS011;25997;50.214;19.354;2023-07-30T14:34:12;4.72;;;2.80;;
40284;SDS011;25997;50.214;19.354;2023-07-30T14:37:16;2.97;;;2.67;;
40284;SDS011;25997;50.214;19.354;2023-07-30T14:40:19;3.60;;;3.30;;
40284;SDS011;25997;50.214;19.354;2023-07-30T14:43:22;4.03;;;3.60;;
40284;SDS011;25997;50.214;19.354;2023-07-30T14:46:25;3.58;;;2.67;;
40284;SDS011;25997;50.214;19.354;2023-07-30T14:49:27;3.47;;;2.97;;
40284;SDS011;25997;50.214;19.354;2023-07-30T14:52:31;3.17;;;2.88;;
40284;SDS011;25997;50.214;19.354;2023-07-30T14:55:35;4.13;;;2.97;;
40284;SDS011;25997;50.214;19.354;2023-07-30T14:58:37;3.80;;;2.95;;
40284;SDS011;25997;50.214;19.354;2023-07-30T15:01:39;2.90;;;2.58;;
40284;SDS011;25997;50.214;19.354;2023-07-30T15:04:42;3.33;;;2.53;;
40284;SDS011;25997;50.214;19.354;2023-07-30T15:07:46;3.47;;;2.75;;
40284;SDS011;25997;50.214;19.354;2023-07-30T15:10:48;2.88;;;2.35;;
40284;SDS011;25997;50.214;19.354;2023-07-30T15:13:51;3.22;;;2.50;;
40284;SDS011;25997;50.214;19.354;2023-07-30T15:16:53;4.13;;;3.72;;
40284;SDS011;25997;50.214;19.354;2023-07-30T15:19:57;2.67;;;2.22;;
40284;SDS011;25997;50.214;19.354;2023-07-30T15:23:01;2.70;;;2.50;;
40284;SDS011;25997;50.214;19.354;2023-07-30T15:26:04;2.80;;;2.40;;
40284;SDS011;25997;50.214;19.354;2023-07-30T15:29:06;2.78;;;2.20;;
40284;SDS011;25997;50.214;19.354;2023-07-30T15:32:08;3.05;;;2.38;;
40284;SDS011;25997;50.214;19.354;2023-07-30T15:35:11;2.85;;;2.15;;
40284;SDS011;25997;50.214;19.354;2023-07-30T15:38:15;3.45;;;2.47;;
40284;SDS011;25997;50.214;19.354;2023-07-30T15:41:18;2.90;;;2.60;;
40284;SDS011;25997;50.214;19.354;2023-07-30T15:44:20;2.85;;;2.30;;
40284;SDS011;25997;50.214;19.354;2023-07-30T15:47:22;7.90;;;2.58;;
40284;SDS011;25997;50.214;19.354;2023-07-30T15:50:25;2.65;;;2.30;;
40284;SDS011;25997;50.214;19.354;2023-07-30T15:53:29;2.65;;;2.00;;
40284;SDS011;25997;50.214;19.354;2023-07-30T15:56:31;3.88;;;2.80;;
40284;SDS011;25997;50.214;19.354;2023-07-30T15:59:34;3.83;;;2.58;;
40284;SDS011;25997;50.214;19.354;2023-07-30T16:02:36;5.00;;;3.33;;
40284;SDS011;25997;50.214;19.354;2023-07-30T16:05:40;3.22;;;2.40;;
40284;SDS011;25997;50.214;19.354;2023-07-30T16:08:49;3.55;;;2.90;;
40284;SDS011;25997;50.214;19.354;2023-07-30T16:11:52;2.95;;;2.58;;
40284;SDS011;25997;50.214;19.354;2023-07-30T16:14:54;3.35;;;2.53;;
40284;SDS011;25997;50.214;19.354;2023-07-30T16:17:57;4.32;;;2.90;;
40284;SDS011;25997;50.214;19.354;2023-07-30T16:20:59;5.95;;;3.08;;
40284;SDS011;25997;50.214;19.354;2023-07-30T16:24:04;4.90;;;2.63;;
40284;SDS011;25997;50.214;19.354;2023-07-30T16:27:07;4.28;;;2.40;;
40284;SDS011;25997;50.214;19.354;2023-07-30T16:30:09;4.07;;;2.20;;
40284;SDS011;25997;50.214;19.354;2023-07-30T16:33:12;3.40;;;2.30;;
40284;SDS011;25997;50.214;19.354;2023-07-30T16:36:14;3.00;;;2.28;;
40284;SDS011;25997;50.214;19.354;2023-07-30T16:39:18;3.50;;;2.47;;
40284;SDS011;25997;50.214;19.354;2023-07-30T16:42:20;4.13;;;2.50;;
40284;SDS011;25997;50.214;19.354;2023-07-30T16:45:23;4.15;;;2.80;;
40284;SDS011;25997;50.214;19.354;2023-07-30T16:48:25;4.10;;;2.85;;
40284;SDS011;25997;50.214;19.354;2023-07-30T16:51:27;3.42;;;2.47;;
40284;SDS011;25997;50.214;19.354;2023-07-30T16:54:32;4.07;;;2.95;;
40284;SDS011;25997;50.214;19.354;2023-07-30T16:57:34;5.88;;;3.10;;
40284;SDS011;25997;50.214;19.354;2023-07-30T17:00:37;2.67;;;2.00;;
40284;SDS011;25997;50.214;19.354;2023-07-30T17:03:39;4.40;;;2.83;;
40284;SDS011;25997;50.214;19.354;2023-07-30T17:06:42;3.75;;;2.72;;
40284;SDS011;25997;50.214;19.354;2023-07-30T17:09:46;3.80;;;3.08;;
40284;SDS011;25997;50.214;19.354;2023-07-30T17:12:48;6.80;;;3.10;;
40284;SDS011;25997;50.214;19.354;2023-07-30T17:15:51;5.57;;;4.40;;
40284;SDS011;25997;50.214;19.354;2023-07-30T17:18:53;5.28;;;3.88;;
40284;SDS011;25997;50.214;19.354;2023-07-30T17:21:56;6.93;;;5.28;;
40284;SDS011;25997;50.214;19.354;2023-07-30T17:25:00;7.78;;;4.38;;
40284;SDS011;25997;50.214;19.354;2023-07-30T17:28:05;7.97;;;4.97;;
40284;SDS011;25997;50.214;19.354;2023-07-30T17:31:09;4.25;;;3.22;;
40284;SDS011;25997;50.214;19.354;2023-07-30T17:34:13;6.20;;;3.42;;
40284;SDS011;25997;50.214;19.354;2023-07-30T17:37:15;5.55;;;4.28;;
40284;SDS011;25997;50.214;19.354;2023-07-30T17:40:19;12.35;;;7.28;;
40284;SDS011;25997;50.214;19.354;2023-07-30T17:43:23;3.53;;;2.80;;
40284;SDS011;25997;50.214;19.354;2023-07-30T17:46:25;5.03;;;3.80;;
40284;SDS011;25997;50.214;19.354;2023-07-30T17:49:28;4.93;;;3.15;;
40284;SDS011;25997;50.214;19.354;2023-07-30T17:52:30;6.78;;;3.58;;
40284;SDS011;25997;50.214;19.354;2023-07-30T17:55:34;4.32;;;3.13;;
40284;SDS011;25997;50.214;19.354;2023-07-30T17:58:36;4.10;;;3.00;;
40284;SDS011;25997;50.214;19.354;2023-07-30T18:01:39;3.38;;;2.70;;
40284;SDS011;25997;50.214;19.354;2023-07-30T18:04:42;4.43;;;2.58;;
40284;SDS011;25997;50.214;19.354;2023-07-30T18:07:44;4.47;;;3.30;;
40284;SDS011;25997;50.214;19.354;2023-07-30T18:10:48;5.30;;;3.25;;